sensor_id;sensor_type;location;lat;lon;timestamp;pressure;altitude;pressure_sealevel;temperature;humidity
48027;BME280;50714;49.208;5.364;2023-05-07T00:00:48;99324.72;;;14.50;71.10
48027;BME280;50714;49.208;5.364;2023-05-07T00:10:49;99317.13;;;14.40;71.71
48027;BME280;50714;49.208;5.364;2023-05-07T00:20:50;99323.25;;;14.36;71.88
48027;BME280;50714;49.208;5.364;2023-05-07T00:30:50;99322.94;;;14.14;72.32
48027;BME280;50714;49.208;5.364;2023-05-07T00:40:50;99333.81;;;14.14;72.05
48027;BME280;50714;49.208;5.364;2023-05-07T00:50:51;99309.91;;;13.92;72.23
48027;BME280;50714;49.208;5.364;2023-05-07T01:00:52;99286.38;;;13.86;73.39
48027;BME280;50714;49.208;5.364;2023-05-07T01:10:52;99294.97;;;13.83;73.59
48027;BME280;50714;49.208;5.364;2023-05-07T01:20:54;99288.75;;;13.94;73.31
48027;BME280;50714;49.208;5.364;2023-05-07T01:31:00;99291.72;;;13.93;73.69
48027;BME280;50714;49.208;5.364;2023-05-07T01:41:02;99288.97;;;13.81;73.59
48027;BME280;50714;49.208;5.364;2023-05-07T01:51:03;99283.81;;;13.61;73.91
48027;BME280;50714;49.208;5.364;2023-05-07T02:01:04;99285.53;;;13.56;73.74
48027;BME280;50714;49.208;5.364;2023-05-07T02:11:05;99288.63;;;13.41;74.24
48027;BME280;50714;49.208;5.364;2023-05-07T02:21:05;99306.03;;;13.34;73.98
48027;BME280;50714;49.208;5.364;2023-05-07T02:31:06;99296.84;;;13.35;73.74
48027;BME280;50714;49.208;5.364;2023-05-07T02:41:06;99303.50;;;13.14;73.76
48027;BME280;50714;49.208;5.364;2023-05-07T02:51:06;99302.56;;;13.02;74.21
48027;BME280;50714;49.208;5.364;2023-05-07T03:01:07;99294.16;;;12.67;74.41
48027;BME280;50714;49.208;5.364;2023-05-07T03:11:07;99293.56;;;12.64;75.35
48027;BME280;50714;49.208;5.364;2023-05-07T03:21:08;99288.47;;;12.75;75.37
48027;BME280;50714;49.208;5.364;2023-05-07T03:31:08;99267.38;;;12.58;76.08
48027;BME280;50714;49.208;5.364;2023-05-07T03:41:09;99267.31;;;12.65;75.53
48027;BME280;50714;49.208;5.364;2023-05-07T03:51:10;99279.47;;;12.56;75.63
48027;BME280;50714;49.208;5.364;2023-05-07T04:01:10;99284.81;;;12.62;75.90
48027;BME280;50714;49.208;5.364;2023-05-07T04:11:11;99280.28;;;12.56;75.47
48027;BME280;50714;49.208;5.364;2023-05-07T04:21:16;99280.72;;;12.53;76.38
48027;BME280;50714;49.208;5.364;2023-05-07T04:31:16;99296.44;;;12.45;75.93
48027;BME280;50714;49.208;5.364;2023-05-07T04:41:17;99300.16;;;12.50;76.46
48027;BME280;50714;49.208;5.364;2023-05-07T04:51:17;99319.31;;;12.49;76.25
48027;BME280;50714;49.208;5.364;2023-05-07T05:01:17;99314.66;;;12.56;77.31
48027;BME280;50714;49.208;5.364;2023-05-07T05:11:18;99317.34;;;12.56;77.34
48027;BME280;50714;49.208;5.364;2023-05-07T05:21:18;99321.03;;;12.68;79.17
48027;BME280;50714;49.208;5.364;2023-05-07T05:31:18;99334.47;;;12.99;78.90
48027;BME280;50714;49.208;5.364;2023-05-07T05:41:19;99344.38;;;13.12;79.36
48027;BME280;50714;49.208;5.364;2023-05-07T05:51:21;99348.94;;;13.18;80.42
48027;BME280;50714;49.208;5.364;2023-05-07T06:01:21;99340.75;;;13.43;80.57
48027;BME280;50714;49.208;5.364;2023-05-07T06:11:22;99352.72;;;13.54;80.49
48027;BME280;50714;49.208;5.364;2023-05-07T06:21:22;99351.03;;;13.89;81.26
48027;BME280;50714;49.208;5.364;2023-05-07T06:31:22;99366.69;;;14.06;81.33
48027;BME280;50714;49.208;5.364;2023-05-07T06:41:23;99385.22;;;14.09;81.89
48027;BME280;50714;49.208;5.364;2023-05-07T06:51:23;99393.78;;;14.24;81.60
48027;BME280;50714;49.208;5.364;2023-05-07T07:01:23;99389.97;;;14.43;81.79
48027;BME280;50714;49.208;5.364;2023-05-07T07:11:24;99412.66;;;14.79;82.11
48027;BME280;50714;49.208;5.364;2023-05-07T07:21:24;99408.13;;;15.26;80.92
48027;BME280;50714;49.208;5.364;2023-05-07T07:31:25;99406.09;;;15.45;80.42
48027;BME280;50714;49.208;5.364;2023-05-07T07:41:25;99424.66;;;15.83;80.46
48027;BME280;50714;49.208;5.364;2023-05-07T07:51:26;99431.97;;;16.06;80.74
48027;BME280;50714;49.208;5.364;2023-05-07T08:01:28;99430.72;;;16.25;79.92
48027;BME280;50714;49.208;5.364;2023-05-07T08:11:28;99429.66;;;16.54;80.41
48027;BME280;50714;49.208;5.364;2023-05-07T08:21:28;99428.44;;;16.74;79.20
48027;BME280;50714;49.208;5.364;2023-05-07T08:31:29;99416.06;;;17.16;78.88
48027;BME280;50714;49.208;5.364;2023-05-07T08:41:30;99432.56;;;17.98;77.80
48027;BME280;50714;49.208;5.364;2023-05-07T08:51:30;99426.94;;;18.76;76.32
48027;BME280;50714;49.208;5.364;2023-05-07T09:01:31;99434.41;;;19.12;73.47
48027;BME280;50714;49.208;5.364;2023-05-07T09:11:31;99428.66;;;19.14;72.58
48027;BME280;50714;49.208;5.364;2023-05-07T09:21:32;99433.66;;;19.54;71.95
48027;BME280;50714;49.208;5.364;2023-05-07T09:31:35;99435.25;;;20.49;70.25
48027;BME280;50714;49.208;5.364;2023-05-07T09:41:43;99434.34;;;22.36;63.69
48027;BME280;50714;49.208;5.364;2023-05-07T09:51:52;99436.38;;;22.10;60.70
48027;BME280;50714;49.208;5.364;2023-05-07T10:01:57;99431.44;;;23.45;61.77
48027;BME280;50714;49.208;5.364;2023-05-07T10:11:58;99438.34;;;25.88;57.52
48027;BME280;50714;49.208;5.364;2023-05-07T10:22:05;99437.97;;;26.36;53.33
48027;BME280;50714;49.208;5.364;2023-05-07T10:42:38;99425.53;;;30.36;50.61
48027;BME280;50714;49.208;5.364;2023-05-07T10:52:39;99426.28;;;33.04;45.81
48027;BME280;50714;49.208;5.364;2023-05-07T11:03:04;99417.47;;;31.93;36.31
48027;BME280;50714;49.208;5.364;2023-05-07T11:13:06;99418.97;;;31.78;42.76
48027;BME280;50714;49.208;5.364;2023-05-07T11:23:07;99415.00;;;30.12;43.51
48027;BME280;50714;49.208;5.364;2023-05-07T11:33:08;99426.16;;;30.42;43.58
48027;BME280;50714;49.208;5.364;2023-05-07T11:43:11;99434.19;;;27.93;43.27
48027;BME280;50714;49.208;5.364;2023-05-07T11:53:11;99446.84;;;25.59;46.12
48027;BME280;50714;49.208;5.364;2023-05-07T12:03:12;99455.19;;;24.23;47.38
48027;BME280;50714;49.208;5.364;2023-05-07T12:23:20;99460.56;;;22.78;51.35
48027;BME280;50714;49.208;5.364;2023-05-07T12:33:25;99462.41;;;22.28;52.16
48027;BME280;50714;49.208;5.364;2023-05-07T12:43:27;99471.03;;;21.76;53.09
48027;BME280;50714;49.208;5.364;2023-05-07T12:53:29;99478.78;;;21.43;55.81
48027;BME280;50714;49.208;5.364;2023-05-07T13:03:31;99480.69;;;21.33;58.01
48027;BME280;50714;49.208;5.364;2023-05-07T13:13:33;99488.66;;;21.34;59.64
48027;BME280;50714;49.208;5.364;2023-05-07T13:23:35;99486.13;;;22.04;58.41
48027;BME280;50714;49.208;5.364;2023-05-07T13:33:37;99482.06;;;22.66;57.70
48027;BME280;50714;49.208;5.364;2023-05-07T13:43:37;99483.94;;;22.81;56.56
48027;BME280;50714;49.208;5.364;2023-05-07T13:53:37;99484.47;;;22.83;56.49
48027;BME280;50714;49.208;5.364;2023-05-07T14:03:38;99481.00;;;22.62;56.57
48027;BME280;50714;49.208;5.364;2023-05-07T14:13:39;99482.22;;;22.30;57.63
48027;BME280;50714;49.208;5.364;2023-05-07T14:23:40;99494.09;;;22.16;57.77
48027;BME280;50714;49.208;5.364;2023-05-07T14:33:40;99502.88;;;22.18;57.23
48027;BME280;50714;49.208;5.364;2023-05-07T14:43:40;99502.34;;;22.05;58.27
48027;BME280;50714;49.208;5.364;2023-05-07T14:53:41;99508.97;;;21.84;59.03
48027;BME280;50714;49.208;5.364;2023-05-07T15:03:42;99514.47;;;21.64;59.67
48027;BME280;50714;49.208;5.364;2023-05-07T15:13:42;99521.06;;;21.42;60.17
48027;BME280;50714;49.208;5.364;2023-05-07T15:23:45;99533.41;;;21.35;60.82
48027;BME280;50714;49.208;5.364;2023-05-07T15:33:45;99524.34;;;21.24;61.10
48027;BME280;50714;49.208;5.364;2023-05-07T15:43:49;99542.63;;;20.93;61.44
48027;BME280;50714;49.208;5.364;2023-05-07T15:53:50;99547.72;;;20.64;62.27
48027;BME280;50714;49.208;5.364;2023-05-07T16:03:52;99555.13;;;20.64;61.93
48027;BME280;50714;49.208;5.364;2023-05-07T16:13:52;99556.47;;;20.56;61.85
48027;BME280;50714;49.208;5.364;2023-05-07T16:23:53;99566.63;;;20.61;62.07
48027;BME280;50714;49.208;5.364;2023-05-07T16:33:53;99567.88;;;20.38;61.66
48027;BME280;50714;49.208;5.364;2023-05-07T16:43:53;99566.72;;;20.34;61.72
48027;BME280;50714;49.208;5.364;2023-05-07T16:53:54;99564.25;;;20.27;62.23
48027;BME280;50714;49.208;5.364;2023-05-07T17:03:54;99564.75;;;19.82;63.37
48027;BME280;50714;49.208;5.364;2023-05-07T17:13:54;99571.53;;;19.48;64.48
48027;BME280;50714;49.208;5.364;2023-05-07T17:23:55;99563.75;;;19.34;65.60
48027;BME280;50714;49.208;5.364;2023-05-07T17:33:55;99555.50;;;19.29;66.00
48027;BME280;50714;49.208;5.364;2023-05-07T17:43:55;99567.66;;;19.17;65.61
48027;BME280;50714;49.208;5.364;2023-05-07T17:53:57;99593.09;;;19.12;66.38
48027;BME280;50714;49.208;5.364;2023-05-07T18:03:57;99599.88;;;19.10;67.13
48027;BME280;50714;49.208;5.364;2023-05-07T18:13:58;99610.63;;;18.94;67.93
48027;BME280;50714;49.208;5.364;2023-05-07T18:23:59;99606.50;;;18.70;69.13
48027;BME280;50714;49.208;5.364;2023-05-07T18:33:59;99619.28;;;18.64;69.90
48027;BME280;50714;49.208;5.364;2023-05-07T18:44:00;99621.09;;;18.59;70.20
48027;BME280;50714;49.208;5.364;2023-05-07T18:54:00;99635.44;;;18.49;70.55
48027;BME280;50714;49.208;5.364;2023-05-07T19:04:01;99648.53;;;18.30;70.95
48027;BME280;50714;49.208;5.364;2023-05-07T19:14:02;99655.03;;;18.08;72.00
48027;BME280;50714;49.208;5.364;2023-05-07T19:24:02;99667.09;;;17.95;72.41
48027;BME280;50714;49.208;5.364;2023-05-07T19:34:02;99678.22;;;17.77;72.18
48027;BME280;50714;49.208;5.364;2023-05-07T19:44:03;99689.56;;;17.57;72.45
48027;BME280;50714;49.208;5.364;2023-05-07T19:54:04;99697.84;;;17.33;72.95
48027;BME280;50714;49.208;5.364;2023-05-07T20:04:04;99706.59;;;17.07;73.19
48027;BME280;50714;49.208;5.364;2023-05-07T20:14:05;99732.19;;;17.06;73.99
48027;BME280;50714;49.208;5.364;2023-05-07T20:24:06;99738.00;;;17.10;74.52
48027;BME280;50714;49.208;5.364;2023-05-07T20:34:06;99745.81;;;17.06;74.84
48027;BME280;50714;49.208;5.364;2023-05-07T20:44:07;99744.63;;;17.02;75.47
48027;BME280;50714;49.208;5.364;2023-05-07T20:54:07;99750.84;;;16.97;76.16
48027;BME280;50714;49.208;5.364;2023-05-07T21:04:08;99755.22;;;16.87;76.91
48027;BME280;50714;49.208;5.364;2023-05-07T21:14:08;99760.19;;;16.90;76.72
48027;BME280;50714;49.208;5.364;2023-05-07T21:24:08;99752.38;;;16.82;76.83
48027;BME280;50714;49.208;5.364;2023-05-07T21:34:09;99769.50;;;16.59;77.54
48027;BME280;50714;49.208;5.364;2023-05-07T21:44:09;99770.56;;;16.58;78.55
48027;BME280;50714;49.208;5.364;2023-05-07T21:54:10;99766.41;;;16.55;78.83
48027;BME280;50714;49.208;5.364;2023-05-07T22:04:10;99759.56;;;16.53;79.07
48027;BME280;50714;49.208;5.364;2023-05-07T22:14:11;99766.31;;;16.50;79.49
48027;BME280;50714;49.208;5.364;2023-05-07T22:24:11;99768.44;;;16.48;79.83
48027;BME280;50714;49.208;5.364;2023-05-07T22:34:11;99774.84;;;16.42;80.41
48027;BME280;50714;49.208;5.364;2023-05-07T22:44:12;99772.25;;;16.47;80.79
48027;BME280;50714;49.208;5.364;2023-05-07T22:54:12;99781.47;;;16.46;80.92
48027;BME280;50714;49.208;5.364;2023-05-07T23:04:13;99782.88;;;16.37;81.46
48027;BME280;50714;49.208;5.364;2023-05-07T23:14:13;99773.50;;;16.33;82.21
48027;BME280;50714;49.208;5.364;2023-05-07T23:24:14;99778.63;;;16.29;82.65
48027;BME280;50714;49.208;5.364;2023-05-07T23:34:14;99773.72;;;16.20;83.35
48027;BME280;50714;49.208;5.364;2023-05-07T23:44:14;99779.94;;;16.09;84.38
48027;BME280;50714;49.208;5.364;2023-05-07T23:54:18;99782.91;;;16.07;84.59
